Time;durP1;ratioP1;P1;durP2;ratioP2;P2;SDS_P1;SDS_P2;PMS_P1;PMS_P2;Temp;Humidity;BMP_temperature;BMP_pressure;BME280_temperature;BME280_humidity;BME280_pressure;Samples;Min_cycle;Max_cycle;Signal;HPM_P1;HPM_P2
2023/07/15 00:01:58;;;;;;;23.75;10.27;;;28.80;83.40;;;;;;6214612;23;20018;-75
2023/07/15 00:04:24;;;;;;;27.35;10.05;;;28.90;83.50;;;;;;6214880;23;20088;-75
2023/07/15 00:06:50;;;;;;;31.58;9.57;;;29.00;83.20;;;;;;6214633;23;20054;-75
2023/07/15 00:09:16;;;;;;;22.48;8.77;;;29.00;82.90;;;;;;6214446;23;20004;-74
2023/07/15 00:11:42;;;;;;;26.15;8.45;;;29.00;83.00;;;;;;6214384;23;20008;-74
2023/07/15 00:14:18;;;;;;;26.05;8.95;;;28.90;83.00;;;;;;6214693;23;20071;-74
2023/07/15 00:16:44;;;;;;;33.17;10.25;;;28.90;83.20;;;;;;6214033;23;20016;-74
2023/07/15 00:19:10;;;;;;;20.70;8.95;;;28.80;83.30;;;;;;6213989;23;20001;-74
2023/07/15 00:21:36;;;;;;;24.33;8.85;;;28.80;83.60;;;;;;6214761;23;20342;-75
2023/07/15 00:24:02;;;;;;;25.13;9.00;;;28.80;83.50;;;;;;6214603;23;20004;-75
2023/07/15 00:26:32;;;;;;;26.80;8.18;;;28.80;83.80;;;;;;6214741;23;20013;-75
2023/07/15 00:28:58;;;;;;;23.55;8.43;;;28.80;83.40;;;;;;6214475;23;20059;-75
2023/07/15 00:31:24;;;;;;;32.40;8.27;;;28.70;83.70;;;;;;6214104;23;20454;-76
2023/07/15 00:33:50;;;;;;;32.08;8.57;;;28.80;83.90;;;;;;6214300;23;20003;-74
2023/07/15 00:36:17;;;;;;;25.38;8.18;;;28.70;83.90;;;;;;6214114;23;20008;-74
2023/07/15 00:38:43;;;;;;;27.98;8.65;;;28.70;84.00;;;;;;6214527;23;20087;-75
2023/07/15 00:41:24;;;;;;;25.13;8.80;;;28.60;84.20;;;;;;6215780;23;20091;-74
2023/07/15 00:43:58;;;;;;;25.77;8.27;;;28.60;83.90;;;;;;6216339;23;20031;-74
2023/07/15 00:46:38;;;;;;;27.42;8.80;;;28.50;84.70;;;;;;6216475;23;20055;-75
2023/07/15 00:49:12;;;;;;;23.52;8.27;;;28.50;84.80;;;;;;6216335;23;20341;-76
2023/07/15 00:51:41;;;;;;;26.25;7.95;;;28.50;84.70;;;;;;6216215;23;20141;-74
2023/07/15 00:54:09;;;;;;;23.58;7.75;;;28.50;84.30;;;;;;6216029;23;20028;-74
2023/07/15 00:56:36;;;;;;;32.22;9.52;;;28.50;84.20;;;;;;6216287;23;20013;-74
2023/07/15 00:59:02;;;;;;;28.45;9.05;;;28.50;84.40;;;;;;6216337;23;20090;-74
2023/07/15 01:01:28;;;;;;;27.02;8.82;;;28.50;84.40;;;;;;6216237;23;20001;-74
2023/07/15 01:03:57;;;;;;;21.25;8.05;;;28.40;84.40;;;;;;6216148;23;20035;-75
2023/07/15 01:06:24;;;;;;;26.17;7.90;;;28.40;84.80;;;;;;6216173;23;20001;-75
2023/07/15 01:08:49;;;;;;;18.05;7.80;;;28.40;84.30;;;;;;6216054;23;20005;-74
2023/07/15 01:11:15;;;;;;;26.77;8.50;;;28.30;83.80;;;;;;6215841;23;20022;-74
2023/07/15 01:13:41;;;;;;;20.90;8.35;;;28.40;83.70;;;;;;6215992;23;20032;-75
2023/07/15 01:16:07;;;;;;;17.58;7.97;;;28.40;83.30;;;;;;6216319;23;20043;-73
2023/07/15 01:18:32;;;;;;;18.63;7.55;;;28.40;83.20;;;;;;6215806;23;20012;-74
2023/07/15 01:20:59;;;;;;;26.02;8.73;;;28.50;83.10;;;;;;6215733;23;20024;-75
2023/07/15 01:23:26;;;;;;;19.75;8.02;;;28.50;82.90;;;;;;6215490;23;20004;-74
2023/07/15 01:25:52;;;;;;;22.75;8.48;;;28.40;83.00;;;;;;6215856;23;20010;-75
2023/07/15 01:28:17;;;;;;;22.25;8.48;;;28.40;83.60;;;;;;6215786;23;20076;-75
2023/07/15 01:30:43;;;;;;;21.88;9.18;;;28.30;83.10;;;;;;6215717;23;20023;-74
2023/07/15 01:33:09;;;;;;;27.20;9.63;;;28.30;83.40;;;;;;6215703;23;20001;-75
2023/07/15 01:35:36;;;;;;;25.42;9.60;;;28.30;83.50;;;;;;6215583;23;20303;-75
2023/07/15 01:38:03;;;;;;;18.60;9.45;;;28.20;83.70;;;;;;6215682;23;20078;-75
2023/07/15 01:40:29;;;;;;;28.10;9.05;;;28.20;83.80;;;;;;6215266;23;20005;-74
2023/07/15 01:42:54;;;;;;;20.35;9.15;;;28.20;84.00;;;;;;6215504;23;20312;-75
2023/07/15 01:45:20;;;;;;;21.70;9.13;;;28.20;83.90;;;;;;6215724;23;20303;-74
2023/07/15 01:47:46;;;;;;;23.20;9.45;;;28.20;84.10;;;;;;6215639;23;20000;-74
2023/07/15 01:50:12;;;;;;;19.90;8.63;;;28.20;84.10;;;;;;6215819;23;20038;-73
2023/07/15 01:52:37;;;;;;;21.88;8.82;;;28.20;84.10;;;;;;6215422;23;20388;-74
2023/07/15 01:55:03;;;;;;;18.98;8.75;;;28.10;84.30;;;;;;6215508;23;20338;-74
2023/07/15 01:57:30;;;;;;;17.48;8.57;;;28.20;84.50;;;;;;6215367;23;20012;-74
2023/07/15 01:59:59;;;;;;;20.33;9.57;;;28.20;84.30;;;;;;6215715;23;20016;-73
2023/07/15 02:02:25;;;;;;;24.52;9.05;;;28.10;84.70;;;;;;6216093;23;20372;-74
2023/07/15 02:04:51;;;;;;;23.70;8.77;;;28.10;84.30;;;;;;6188872;23;20033;-75
2023/07/15 02:07:17;;;;;;;23.25;9.10;;;28.10;84.40;;;;;;6215463;23;20403;-75
2023/07/15 02:09:43;;;;;;;24.70;9.00;;;28.20;84.40;;;;;;6215653;23;20069;-76
2023/07/15 02:12:08;;;;;;;19.13;9.38;;;28.20;84.30;;;;;;6215482;23;20071;-74
2023/07/15 02:14:36;;;;;;;26.25;9.43;;;28.20;84.00;;;;;;6215613;23;20005;-74
2023/07/15 02:17:03;;;;;;;21.20;10.15;;;28.30;83.90;;;;;;6215093;23;20027;-75
2023/07/15 02:19:32;;;;;;;21.42;9.20;;;28.30;83.80;;;;;;6188484;23;20084;-75
2023/07/15 02:21:58;;;;;;;25.42;9.32;;;28.40;83.70;;;;;;6215245;23;20008;-74
2023/07/15 02:24:24;;;;;;;26.95;9.48;;;28.40;83.60;;;;;;6215396;23;20434;-75
2023/07/15 02:26:50;;;;;;;19.30;9.10;;;28.40;83.60;;;;;;6215143;23;20000;-74
2023/07/15 02:29:16;;;;;;;25.60;9.32;;;28.40;83.70;;;;;;6215493;23;19996;-76
2023/07/15 02:31:42;;;;;;;21.08;9.55;;;28.40;83.80;;;;;;6215104;23;20118;-74
2023/07/15 02:34:08;;;;;;;28.20;8.98;;;28.30;84.00;;;;;;6215137;23;20008;-75
2023/07/15 02:36:35;;;;;;;21.80;9.15;;;28.30;84.20;;;;;;6214889;23;20013;-74
2023/07/15 02:39:00;;;;;;;28.90;10.05;;;28.40;83.80;;;;;;6215146;23;20004;-74
2023/07/15 02:41:26;;;;;;;22.58;9.77;;;28.40;84.00;;;;;;6215483;23;20378;-75
2023/07/15 02:43:52;;;;;;;28.17;9.80;;;28.40;84.00;;;;;;6215152;23;20000;-74
2023/07/15 02:46:17;;;;;;;23.30;9.75;;;28.40;84.00;;;;;;6215345;23;20032;-76
2023/07/15 02:48:43;;;;;;;18.35;8.90;;;28.40;84.20;;;;;;6214936;23;20000;-74
2023/07/15 02:51:09;;;;;;;22.42;9.77;;;28.30;84.20;;;;;;6215164;23;20011;-73
2023/07/15 02:53:34;;;;;;;31.02;10.00;;;28.30;84.30;;;;;;6214926;23;20008;-74
2023/07/15 02:56:00;;;;;;;21.20;9.45;;;28.30;84.70;;;;;;6214556;23;20059;-75
2023/07/15 02:58:26;;;;;;;24.50;8.65;;;28.30;85.20;;;;;;6215260;23;20031;-74
2023/07/15 03:00:52;;;;;;;25.55;10.00;;;28.30;84.70;;;;;;6215205;23;20028;-75
2023/07/15 03:03:18;;;;;;;27.52;10.40;;;28.30;84.60;;;;;;6187980;23;20009;-76
2023/07/15 03:05:51;;;;;;;23.13;10.23;;;28.20;84.60;;;;;;6214851;23;19996;-73
2023/07/15 03:08:16;;;;;;;24.70;9.50;;;28.20;84.90;;;;;;6215046;23;20067;-74
2023/07/15 03:10:43;;;;;;;24.77;9.52;;;28.20;85.10;;;;;;6214556;23;20303;-75
2023/07/15 03:13:09;;;;;;;24.88;9.68;;;28.10;84.90;;;;;;6188127;23;20008;-76
2023/07/15 03:15:35;;;;;;;22.83;9.57;;;28.10;85.10;;;;;;6188094;23;20024;-75
2023/07/15 03:18:02;;;;;;;28.55;10.07;;;28.20;85.10;;;;;;6214910;23;20006;-75
2023/07/15 03:20:28;;;;;;;24.48;9.43;;;28.10;85.20;;;;;;6214742;23;20418;-74
2023/07/15 03:22:55;;;;;;;20.20;9.40;;;28.10;85.40;;;;;;6214488;23;20055;-74
2023/07/15 03:25:21;;;;;;;23.20;10.13;;;28.10;85.40;;;;;;6214756;23;20035;-74
2023/07/15 03:27:50;;;;;;;22.63;10.15;;;28.10;85.30;;;;;;6215492;23;20063;-74
2023/07/15 03:30:17;;;;;;;21.73;10.02;;;28.10;86.00;;;;;;6214766;23;20031;-74
2023/07/15 03:32:44;;;;;;;22.75;9.13;;;28.10;85.00;;;;;;6214489;23;20087;-73
2023/07/15 03:35:10;;;;;;;24.80;11.90;;;28.10;85.20;;;;;;6214578;23;20001;-75
2023/07/15 03:37:41;;;;;;;23.05;10.63;;;28.00;85.30;;;;;;6214435;23;20139;-74
2023/07/15 03:40:08;;;;;;;20.08;9.93;;;27.90;85.90;;;;;;6214714;23;20457;-74
2023/07/15 03:42:35;;;;;;;25.83;10.00;;;27.80;86.20;;;;;;6214655;23;20032;-75
2023/07/15 03:45:01;;;;;;;24.88;10.07;;;27.90;86.10;;;;;;6214926;23;20009;-75
2023/07/15 03:47:26;;;;;;;24.42;9.85;;;28.00;86.20;;;;;;6214679;23;20005;-74
2023/07/15 03:49:52;;;;;;;25.42;9.98;;;27.90;85.80;;;;;;6214826;23;20392;-74
2023/07/15 03:52:18;;;;;;;27.77;10.43;;;28.00;85.80;;;;;;6214839;23;20004;-75
2023/07/15 03:54:43;;;;;;;21.65;8.95;;;28.00;85.70;;;;;;6214671;23;20046;-74
2023/07/15 03:57:10;;;;;;;28.67;10.27;;;28.10;85.40;;;;;;6214261;23;20015;-75
2023/07/15 03:59:35;;;;;;;22.60;9.48;;;28.00;85.30;;;;;;6214729;23;20024;-75
2023/07/15 04:02:02;;;;;;;26.25;9.50;;;27.90;85.50;;;;;;6214599;23;20027;-74
2023/07/15 04:04:27;;;;;;;25.80;9.75;;;27.90;85.60;;;;;;6214375;23;20388;-74
2023/07/15 04:06:54;;;;;;;31.95;12.63;;;27.90;85.40;;;;;;6214715;23;20001;-74
2023/07/15 04:09:21;;;;;;;23.58;9.32;;;27.90;85.40;;;;;;6214822;23;19997;-73
2023/07/15 04:11:47;;;;;;;30.10;10.63;;;28.00;84.90;;;;;;6214697;23;20144;-75
2023/07/15 04:14:12;;;;;;;25.92;10.00;;;27.90;84.90;;;;;;6187633;23;20005;-75
2023/07/15 04:16:39;;;;;;;18.50;9.25;;;27.90;84.90;;;;;;6216597;23;20013;-75
2023/07/15 04:19:05;;;;;;;20.85;9.18;;;27.90;84.80;;;;;;6216538;23;20331;-74
2023/07/15 04:21:31;;;;;;;22.33;9.98;;;28.00;84.80;;;;;;6216748;23;20004;-75
2023/07/15 04:23:57;;;;;;;25.30;9.73;;;27.90;84.90;;;;;;6216549;23;20059;-75
2023/07/15 04:26:24;;;;;;;24.27;11.10;;;27.90;84.90;;;;;;6189873;23;20001;-75
2023/07/15 04:28:51;;;;;;;23.52;10.07;;;27.90;84.90;;;;;;6216755;23;20443;-75
2023/07/15 04:31:17;;;;;;;27.48;9.35;;;27.90;84.90;;;;;;6216652;23;20021;-74
2023/07/15 04:33:48;;;;;;;24.63;10.45;;;27.90;84.90;;;;;;6216611;23;20519;-75
2023/07/15 04:36:14;;;;;;;23.73;10.20;;;27.90;84.80;;;;;;6216435;23;20016;-74
2023/07/15 04:38:40;;;;;;;26.98;9.93;;;27.80;84.70;;;;;;6216206;23;20024;-76
2023/07/15 04:41:06;;;;;;;20.92;9.98;;;27.80;85.00;;;;;;6216527;23;19997;-75
2023/07/15 04:43:32;;;;;;;26.85;9.80;;;27.80;85.20;;;;;;6216101;23;20008;-75
2023/07/15 04:45:59;;;;;;;27.98;9.80;;;27.80;85.50;;;;;;6216528;23;20001;-75
2023/07/15 04:48:25;;;;;;;29.65;9.73;;;27.80;85.20;;;;;;6216073;23;20005;-75
2023/07/15 04:50:51;;;;;;;20.85;9.77;;;27.80;85.40;;;;;;6216217;23;20000;-75
2023/07/15 04:53:17;;;;;;;26.80;8.77;;;27.80;84.80;;;;;;6215895;23;20059;-74
2023/07/15 04:55:45;;;;;;;22.25;9.32;;;27.90;84.60;;;;;;6215977;23;20331;-73
2023/07/15 04:58:11;;;;;;;24.52;9.32;;;27.90;84.30;;;;;;6215904;23;20012;-73
2023/07/15 05:00:37;;;;;;;24.10;10.10;;;27.90;84.30;;;;;;6215835;23;20066;-74
2023/07/15 05:03:06;;;;;;;20.65;8.57;;;28.00;84.20;;;;;;6215994;23;20113;-75
2023/07/15 05:05:32;;;;;;;22.85;10.65;;;28.00;83.90;;;;;;6216043;23;20004;-76
2023/07/15 05:08:18;;;;;;;20.30;8.95;;;28.10;83.70;;;;;;6215979;23;20382;-74
2023/07/15 05:10:45;;;;;;;22.65;9.23;;;28.10;83.40;;;;;;6215594;23;20008;-75
2023/07/15 05:13:11;;;;;;;22.45;10.15;;;28.10;83.50;;;;;;6215877;23;20071;-75
2023/07/15 05:15:37;;;;;;;24.17;8.60;;;28.20;83.50;;;;;;6216066;23;20335;-75
2023/07/15 05:18:06;;;;;;;19.02;8.98;;;28.30;83.30;;;;;;6216651;23;20087;-74
2023/07/15 05:20:34;;;;;;;19.88;9.73;;;28.40;82.70;;;;;;6215851;23;20092;-74
2023/07/15 05:23:01;;;;;;;20.08;8.68;;;28.60;82.20;;;;;;6215940;23;19996;-74
2023/07/15 05:25:27;;;;;;;16.05;8.82;;;28.70;82.00;;;;;;6215247;23;20097;-74
2023/07/15 05:27:52;;;;;;;17.77;8.70;;;28.90;81.50;;;;;;6215888;23;20331;-76
2023/07/15 05:30:19;;;;;;;17.77;8.32;;;29.10;80.80;;;;;;6215693;23;19996;-76
2023/07/15 05:32:45;;;;;;;22.48;9.00;;;29.40;79.70;;;;;;6215493;23;20442;-75
2023/07/15 05:35:11;;;;;;;16.50;8.77;;;29.80;78.40;;;;;;6189055;23;20012;-74
2023/07/15 05:37:37;;;;;;;20.65;8.40;;;30.20;77.20;;;;;;6215582;23;20016;-75
2023/07/15 05:40:09;;;;;;;18.48;8.45;;;30.50;76.00;;;;;;6215671;23;20076;-75
2023/07/15 05:42:45;;;;;;;17.92;8.07;;;30.60;75.10;;;;;;6216069;23;20012;-74
2023/07/15 05:45:11;;;;;;;22.77;7.93;;;30.70;74.10;;;;;;6216330;23;20003;-74
2023/07/15 05:47:38;;;;;;;19.02;7.93;;;31.00;74.00;;;;;;6215453;23;20076;-75
2023/07/15 05:50:04;;;;;;;21.98;7.85;;;31.40;73.00;;;;;;6215542;23;20100;-76
2023/07/15 05:52:30;;;;;;;19.48;7.88;;;31.60;72.10;;;;;;6215411;23;20391;-77
2023/07/15 05:54:56;;;;;;;15.00;7.47;;;31.80;71.60;;;;;;6215747;23;19997;-75
2023/07/15 05:57:21;;;;;;;16.08;7.32;;;32.10;70.90;;;;;;6215375;23;20009;-75
2023/07/15 05:59:47;;;;;;;13.65;7.03;;;32.10;70.40;;;;;;6214978;23;20005;-76
2023/07/15 06:02:12;;;;;;;13.05;6.68;;;32.40;69.50;;;;;;6214997;23;20000;-75
2023/07/15 06:04:38;;;;;;;15.48;6.50;;;32.30;69.20;;;;;;6214540;23;20039;-75
2023/07/15 06:07:04;;;;;;;18.17;7.55;;;32.40;68.90;;;;;;6214420;23;20020;-74
2023/07/15 06:09:30;;;;;;;15.82;7.43;;;32.60;68.50;;;;;;6214632;23;20020;-74
2023/07/15 06:11:55;;;;;;;17.80;7.22;;;32.80;67.80;;;;;;6214840;23;20039;-76
2023/07/15 06:14:21;;;;;;;17.35;7.15;;;33.00;67.40;;;;;;6214576;23;20000;-73
2023/07/15 06:16:47;;;;;;;17.75;7.38;;;33.00;67.30;;;;;;6214443;23;20019;-75
2023/07/15 06:19:12;;;;;;;23.45;6.78;;;33.10;67.00;;;;;;6214744;23;20359;-75
2023/07/15 06:21:41;;;;;;;18.20;7.47;;;33.30;66.70;;;;;;6214195;23;19997;-75
2023/07/15 06:24:06;;;;;;;14.45;6.72;;;33.60;66.00;;;;;;6214181;23;19997;-76
2023/07/15 06:26:32;;;;;;;22.83;7.30;;;33.70;65.50;;;;;;6214438;23;20074;-74
2023/07/15 06:28:59;;;;;;;21.60;7.18;;;33.90;65.20;;;;;;6187318;23;20078;-76
2023/07/15 06:31:26;;;;;;;18.15;7.30;;;34.00;64.90;;;;;;6214151;23;20450;-75
2023/07/15 06:33:52;;;;;;;21.95;7.13;;;34.10;64.70;;;;;;6213847;23;19996;-75
2023/07/15 06:36:18;;;;;;;16.23;7.22;;;34.20;65.00;;;;;;6213456;23;20031;-76
2023/07/15 06:38:44;;;;;;;21.27;7.50;;;34.20;63.80;;;;;;6213998;23;20000;-75
2023/07/15 06:41:10;;;;;;;17.17;6.63;;;34.20;63.90;;;;;;6214201;23;19997;-74
2023/07/15 06:43:36;;;;;;;21.40;7.68;;;34.20;63.70;;;;;;6214335;23;20367;-74
2023/07/15 06:46:01;;;;;;;18.05;6.82;;;34.30;63.50;;;;;;6213933;23;19997;-75
2023/07/15 06:48:27;;;;;;;15.75;6.65;;;34.40;63.40;;;;;;6213820;23;20008;-76
2023/07/15 06:50:53;;;;;;;21.90;7.50;;;34.60;63.00;;;;;;6214137;23;20016;-75
2023/07/15 06:53:18;;;;;;;19.25;6.95;;;34.50;62.80;;;;;;6214114;23;20001;-76
2023/07/15 06:55:44;;;;;;;15.48;6.50;;;34.70;62.80;;;;;;6214026;23;20007;-74
2023/07/15 06:58:10;;;;;;;19.60;7.10;;;34.70;62.10;;;;;;6214102;23;20071;-75
2023/07/15 07:00:35;;;;;;;19.02;7.15;;;34.70;61.60;;;;;;6187211;23;20008;-76
2023/07/15 07:03:01;;;;;;;19.70;6.97;;;34.80;61.40;;;;;;6214288;23;20000;-75
2023/07/15 07:05:27;;;;;;;17.38;7.18;;;34.80;61.50;;;;;;6214034;23;20017;-76
2023/07/15 07:07:54;;;;;;;16.63;6.57;;;34.80;61.20;;;;;;6214356;23;20387;-76
2023/07/15 07:10:20;;;;;;;18.45;6.15;;;35.00;61.00;;;;;;6213930;23;20445;-77
2023/07/15 07:12:46;;;;;;;24.00;7.30;;;35.00;60.90;;;;;;6214023;23;20004;-75
2023/07/15 07:15:12;;;;;;;18.33;6.93;;;35.10;60.40;;;;;;6214221;23;20003;-75
2023/07/15 07:17:38;;;;;;;15.18;6.63;;;35.10;60.10;;;;;;6213836;23;20012;-74
2023/07/15 07:20:04;;;;;;;17.02;7.03;;;35.10;60.30;;;;;;6213917;23;20414;-76
2023/07/15 07:22:30;;;;;;;19.00;6.97;;;35.20;59.80;;;;;;6214595;23;20000;-74
2023/07/15 07:24:58;;;;;;;18.98;7.28;;;35.30;59.80;;;;;;6214476;23;19997;-75
2023/07/15 07:27:24;;;;;;;28.40;7.57;;;35.30;59.80;;;;;;6213921;23;20004;-74
2023/07/15 07:29:49;;;;;;;18.27;7.28;;;35.30;59.60;;;;;;6213933;23;20004;-75
2023/07/15 07:32:15;;;;;;;19.45;7.60;;;35.40;59.20;;;;;;6186893;23;20031;-75
2023/07/15 07:34:41;;;;;;;15.45;6.85;;;35.40;58.90;;;;;;6214365;23;20004;-75
2023/07/15 07:37:08;;;;;;;14.80;7.05;;;35.30;58.90;;;;;;6214047;23;20016;-75
2023/07/15 07:39:34;;;;;;;21.92;7.85;;;35.30;58.80;;;;;;6214376;23;20063;-75
2023/07/15 07:41:59;;;;;;;18.95;7.32;;;35.30;58.70;;;;;;6214396;23;20039;-75
2023/07/15 07:44:25;;;;;;;17.35;7.07;;;35.20;58.60;;;;;;6213788;23;20430;-75
2023/07/15 07:46:51;;;;;;;19.25;7.28;;;35.20;58.70;;;;;;6187061;23;20012;-75
2023/07/15 07:49:17;;;;;;;19.52;6.45;;;35.10;58.70;;;;;;6213855;23;20489;-73
2023/07/15 07:51:42;;;;;;;18.77;7.82;;;35.20;58.70;;;;;;6214347;23;20005;-76
2023/07/15 07:54:08;;;;;;;14.73;7.57;;;35.10;58.70;;;;;;6213992;23;20009;-76
2023/07/15 07:56:35;;;;;;;17.58;6.80;;;35.10;58.80;;;;;;6213718;23;20095;-76
2023/07/15 07:59:01;;;;;;;16.65;7.10;;;35.00;58.70;;;;;;6214143;23;20012;-75
2023/07/15 08:01:28;;;;;;;15.98;8.00;;;34.90;58.90;;;;;;6187714;23;20355;-76
2023/07/15 08:03:55;;;;;;;18.45;7.72;;;34.60;59.30;;;;;;6214257;23;20036;-75
2023/07/15 08:06:22;;;;;;;18.70;7.47;;;34.50;59.50;;;;;;6214018;23;20004;-77
2023/07/15 08:08:47;;;;;;;18.23;7.70;;;34.40;59.70;;;;;;6214082;23;20009;-75
2023/07/15 08:11:13;;;;;;;16.15;7.10;;;34.40;59.80;;;;;;6214060;23;20372;-75
2023/07/15 08:13:39;;;;;;;18.73;7.38;;;34.20;60.10;;;;;;6213865;23;20093;-76
2023/07/15 08:16:04;;;;;;;17.95;7.68;;;34.20;60.30;;;;;;6213939;23;20222;-77
2023/07/15 08:18:30;;;;;;;19.25;8.05;;;34.20;60.10;;;;;;6213956;23;20001;-77
2023/07/15 08:20:56;;;;;;;18.13;6.97;;;34.20;60.20;;;;;;6214318;23;20376;-76
2023/07/15 08:23:22;;;;;;;19.40;7.85;;;34.20;60.40;;;;;;6214003;23;20384;-74
2023/07/15 08:25:47;;;;;;;16.33;7.30;;;34.20;60.40;;;;;;6213400;23;20000;-75
2023/07/15 08:28:13;;;;;;;25.80;7.72;;;34.00;60.40;;;;;;6214134;23;20008;-77
2023/07/15 08:30:39;;;;;;;16.60;7.40;;;34.00;60.50;;;;;;6213577;23;20023;-75
2023/07/15 08:33:06;;;;;;;14.25;6.90;;;34.00;60.80;;;;;;6213895;23;20041;-79
2023/07/15 08:35:32;;;;;;;16.35;7.00;;;33.90;60.60;;;;;;6213388;23;20080;-77
2023/07/15 08:37:58;;;;;;;17.25;7.03;;;33.80;60.70;;;;;;6213601;23;20055;-78
2023/07/15 08:40:25;;;;;;;18.00;7.88;;;33.80;60.60;;;;;;6187277;23;20005;-76
2023/07/15 08:42:52;;;;;;;15.50;7.20;;;33.80;60.70;;;;;;6213816;23;20458;-76
2023/07/15 08:45:18;;;;;;;24.65;8.48;;;33.70;60.70;;;;;;6214357;23;20011;-78
2023/07/15 08:47:44;;;;;;;20.55;7.85;;;33.70;60.80;;;;;;6214185;23;20434;-77
2023/07/15 08:50:17;;;;;;;17.67;8.27;;;33.70;60.60;;;;;;6214056;23;19997;-78
2023/07/15 08:52:44;;;;;;;18.95;7.93;;;33.70;60.50;;;;;;6214508;23;20369;-78
2023/07/15 08:55:10;;;;;;;17.77;6.93;;;33.50;60.50;;;;;;6187063;23;20016;-78
2023/07/15 08:57:36;;;;;;;20.40;8.55;;;33.50;60.30;;;;;;6213944;23;20013;-77
2023/07/15 09:00:11;;;;;;;14.90;7.38;;;33.40;60.50;;;;;;6214099;23;20003;-77
2023/07/15 09:02:39;;;;;;;17.90;7.07;;;33.40;60.70;;;;;;6216984;23;20027;-78
2023/07/15 09:05:09;;;;;;;15.40;7.82;;;33.30;61.00;;;;;;6216679;23;20024;-75
2023/07/15 09:07:57;;;;;;;16.85;6.85;;;33.30;60.70;;;;;;6216576;23;20087;-77
2023/07/15 09:10:23;;;;;;;13.52;6.63;;;33.30;60.90;;;;;;6216182;23;20016;-75
2023/07/15 09:12:55;;;;;;;15.88;6.63;;;33.30;61.30;;;;;;6216215;23;20379;-76
2023/07/15 09:15:21;;;;;;;17.33;7.15;;;33.40;61.20;;;;;;6216331;23;20392;-77
2023/07/15 09:17:59;;;;;;;16.10;7.05;;;33.40;60.90;;;;;;6215962;23;20044;-76
2023/07/15 09:20:26;;;;;;;19.10;7.55;;;33.30;61.20;;;;;;6216285;23;19996;-76
2023/07/15 09:22:58;;;;;;;17.90;6.90;;;33.30;61.10;;;;;;6215888;23;20001;-77
2023/07/15 09:25:24;;;;;;;18.85;7.03;;;33.30;60.50;;;;;;6215942;23;20000;-76
2023/07/15 09:27:50;;;;;;;15.27;6.88;;;33.30;60.90;;;;;;6215592;23;20020;-77
2023/07/15 09:30:17;;;;;;;15.85;7.45;;;33.30;60.60;;;;;;6215886;23;20005;-77
2023/07/15 09:32:42;;;;;;;13.80;6.65;;;33.30;60.60;;;;;;6215887;23;20020;-77
2023/07/15 09:35:08;;;;;;;18.27;6.80;;;33.30;60.30;;;;;;6215786;23;20009;-78
2023/07/15 09:37:34;;;;;;;16.65;6.90;;;33.30;60.30;;;;;;6215265;23;20040;-78
2023/07/15 09:40:04;;;;;;;15.50;6.40;;;33.40;60.20;;;;;;6189101;23;20334;-78
2023/07/15 09:42:30;;;;;;;18.30;6.97;;;33.50;60.00;;;;;;6215855;23;20331;-77
2023/07/15 09:44:56;;;;;;;19.92;6.47;;;33.50;59.60;;;;;;6217085;23;20026;-76
2023/07/15 09:47:23;;;;;;;12.77;5.63;;;33.60;59.40;;;;;;6189463;23;20016;-76
2023/07/15 09:49:48;;;;;;;12.13;5.80;;;33.60;59.10;;;;;;6215885;23;20088;-76
2023/07/15 09:52:15;;;;;;;12.77;6.63;;;33.60;58.90;;;;;;6215625;23;20433;-77
2023/07/15 09:54:44;;;;;;;11.30;5.60;;;33.60;58.80;;;;;;6215463;23;20075;-75
2023/07/15 09:57:15;;;;;;;15.43;5.90;;;33.60;58.60;;;;;;6215812;23;20009;-77
2023/07/15 09:59:46;;;;;;;16.02;6.43;;;33.60;57.90;;;;;;6215469;23;20031;-77
2023/07/15 10:02:27;;;;;;;17.98;6.43;;;33.60;58.80;;;;;;6215581;23;20036;-78
2023/07/15 10:05:04;;;;;;;18.17;7.13;;;33.60;58.90;;;;;;6215609;23;20334;-77
2023/07/15 10:07:30;;;;;;;20.17;7.43;;;33.60;59.30;;;;;;6214823;23;20019;-75
2023/07/15 10:09:59;;;;;;;16.15;6.20;;;33.60;60.20;;;;;;6215475;23;20386;-77
2023/07/15 10:12:27;;;;;;;17.77;6.75;;;33.60;60.90;;;;;;6214683;23;20067;-77
2023/07/15 10:14:53;;;;;;;18.35;6.60;;;33.70;61.30;;;;;;6215441;23;20035;-75
2023/07/15 10:17:19;;;;;;;13.60;6.30;;;33.70;61.60;;;;;;6215032;23;20014;-75
2023/07/15 10:19:47;;;;;;;19.25;7.40;;;33.60;62.00;;;;;;6215109;23;20058;-76
2023/07/15 10:22:15;;;;;;;16.33;6.13;;;33.60;62.30;;;;;;6188176;23;20049;-75
2023/07/15 10:24:42;;;;;;;16.90;6.25;;;33.50;62.50;;;;;;6188570;23;20005;-76
2023/07/15 10:27:10;;;;;;;17.05;6.55;;;33.50;62.60;;;;;;6215205;23;20004;-76
2023/07/15 10:29:40;;;;;;;25.73;6.65;;;33.40;63.00;;;;;;6215111;23;20376;-77
2023/07/15 10:32:09;;;;;;;19.70;6.75;;;33.40;63.10;;;;;;6215153;23;20024;-77
2023/07/15 10:34:39;;;;;;;20.52;6.85;;;33.50;63.40;;;;;;6215713;23;20001;-76
2023/07/15 10:37:11;;;;;;;15.45;6.10;;;33.40;63.20;;;;;;6215247;23;20073;-76
2023/07/15 10:39:38;;;;;;;20.05;6.82;;;33.40;63.50;;;;;;6215260;23;20009;-76
2023/07/15 10:42:15;;;;;;;17.65;6.30;;;33.40;63.60;;;;;;6215800;23;20016;-77
2023/07/15 10:44:58;;;;;;;19.63;7.43;;;33.50;63.80;;;;;;6217507;23;20004;-78
2023/07/15 10:47:24;;;;;;;14.80;6.47;;;33.60;63.40;;;;;;6215275;23;20001;-77
2023/07/15 10:49:49;;;;;;;15.68;6.60;;;33.60;63.40;;;;;;6215357;23;20015;-78
2023/07/15 10:52:19;;;;;;;17.40;6.20;;;33.60;63.30;;;;;;6214808;23;20051;-75
2023/07/15 10:54:45;;;;;;;18.70;7.15;;;33.60;63.40;;;;;;6214949;23;20005;-75
2023/07/15 10:57:14;;;;;;;14.32;6.07;;;33.60;63.10;;;;;;6214775;23;20087;-78
2023/07/15 10:59:41;;;;;;;20.45;7.72;;;33.60;63.80;;;;;;6214931;23;20008;-76
2023/07/15 11:02:08;;;;;;;18.73;6.35;;;33.70;63.30;;;;;;6215094;23;20166;-76
2023/07/15 11:04:35;;;;;;;18.90;6.45;;;33.80;63.20;;;;;;6214628;23;20031;-77
2023/07/15 11:07:03;;;;;;;16.30;6.03;;;33.80;62.70;;;;;;6214839;23;20434;-76
2023/07/15 11:09:29;;;;;;;17.40;6.10;;;33.90;62.60;;;;;;6215006;23;20001;-77
2023/07/15 11:11:55;;;;;;;20.23;6.60;;;33.90;62.00;;;;;;6215054;23;20304;-75
2023/07/15 11:14:27;;;;;;;18.38;5.90;;;34.00;61.80;;;;;;6215552;23;20047;-75
2023/07/15 11:16:54;;;;;;;16.63;7.05;;;34.00;60.90;;;;;;6214914;23;20016;-76
2023/07/15 11:19:21;;;;;;;19.02;5.82;;;34.10;61.10;;;;;;6214976;23;20367;-76
2023/07/15 11:21:47;;;;;;;15.02;6.07;;;34.20;60.90;;;;;;6214513;23;20007;-76
2023/07/15 11:24:14;;;;;;;14.77;5.80;;;34.20;60.70;;;;;;6214368;23;20371;-76
2023/07/15 11:26:41;;;;;;;18.27;6.43;;;34.40;60.60;;;;;;6214347;23;20000;-76
2023/07/15 11:29:23;;;;;;;15.95;5.90;;;34.40;60.00;;;;;;6214724;23;20308;-75
2023/07/15 11:31:51;;;;;;;16.17;5.63;;;34.40;59.10;;;;;;6214463;23;20017;-76
2023/07/15 11:34:22;;;;;;;17.00;5.95;;;34.40;60.00;;;;;;6188119;23;20435;-76
2023/07/15 11:36:52;;;;;;;16.60;6.18;;;34.50;59.90;;;;;;6214519;23;20091;-77
2023/07/15 11:39:18;;;;;;;22.55;6.57;;;34.50;59.80;;;;;;6214297;23;20419;-77
2023/07/15 11:41:44;;;;;;;18.13;6.10;;;34.50;59.80;;;;;;6214603;23;20031;-76
2023/07/15 11:44:12;;;;;;;15.98;6.30;;;34.60;59.70;;;;;;6214687;23;20008;-77
2023/07/15 11:46:40;;;;;;;13.85;6.07;;;34.60;59.80;;;;;;6214131;23;20001;-75
2023/07/15 11:49:06;;;;;;;15.75;6.13;;;34.50;59.70;;;;;;6214427;23;20008;-76
2023/07/15 11:51:34;;;;;;;16.05;6.80;;;34.60;59.90;;;;;;6214548;23;20339;-76
2023/07/15 11:54:00;;;;;;;13.35;6.20;;;34.70;60.00;;;;;;6214320;23;20411;-76
2023/07/15 11:56:48;;;;;;;15.27;6.28;;;34.80;59.70;;;;;;6213945;23;20427;-77
2023/07/15 11:59:32;;;;;;;15.40;6.50;;;34.90;59.70;;;;;;6214342;23;20030;-77
2023/07/15 12:01:59;;;;;;;16.90;6.32;;;34.90;60.00;;;;;;6214343;23;20462;-77
2023/07/15 12:04:28;;;;;;;17.45;6.28;;;34.90;60.10;;;;;;6214211;23;20020;-76
2023/07/15 12:06:54;;;;;;;16.50;6.93;;;34.90;60.50;;;;;;6214086;23;20412;-76
2023/07/15 12:09:24;;;;;;;19.48;6.95;;;34.80;60.40;;;;;;6214272;23;20082;-77
2023/07/15 12:11:50;;;;;;;19.10;6.45;;;34.90;60.80;;;;;;6214226;23;20115;-76
2023/07/15 12:14:17;;;;;;;16.80;7.22;;;34.80;60.60;;;;;;6214440;23;20068;-77
2023/07/15 12:16:43;;;;;;;19.90;6.20;;;34.70;61.00;;;;;;6214215;23;20013;-77
2023/07/15 12:19:12;;;;;;;17.70;6.60;;;34.70;61.10;;;;;;6214295;23;19997;-76
2023/07/15 12:21:38;;;;;;;17.25;6.30;;;34.70;61.40;;;;;;6214750;23;20007;-75
2023/07/15 12:24:04;;;;;;;19.73;6.40;;;34.70;61.10;;;;;;6225237;23;20048;-77
2023/07/15 12:26:30;;;;;;;18.60;6.13;;;34.70;60.70;;;;;;6216433;23;19997;-76
2023/07/15 12:28:57;;;;;;;19.83;6.38;;;34.70;60.60;;;;;;6214759;23;20092;-77
2023/07/15 12:31:23;;;;;;;17.10;6.05;;;34.70;60.80;;;;;;6213963;23;20019;-77
2023/07/15 12:33:48;;;;;;;17.23;6.53;;;34.80;60.70;;;;;;6214294;23;20019;-74
2023/07/15 12:36:16;;;;;;;21.20;6.60;;;34.80;60.70;;;;;;6215050;23;20051;-75